Time;durP1;ratioP1;P1;durP2;ratioP2;P2;SDS_P1;SDS_P2;PMS_P1;PMS_P2;Temp;Humidity;BMP_temperature;BMP_pressure;BME280_temperature;BME280_humidity;BME280_pressure;Samples;Min_cycle;Max_cycle;Signal;HPM_P1;HPM_P2
2022/08/04 04:01:53;;;;;;;2.53;2.00;;;20.10;96.30;;;;;;5338530;23;20512;-76
2022/08/04 04:04:48;;;;;;;6.27;2.27;;;20.60;96.30;;;;;;4968968;28;20437;-77
2022/08/04 04:07:40;;;;;;;4.10;2.43;;;21.10;96.30;;;;;;4955883;28;20418;-77
2022/08/04 04:10:26;;;;;;;4.70;2.23;;;21.60;95.50;;;;;;4965056;28;20403;-77
2022/08/04 04:13:16;;;;;;;3.23;2.27;;;22.10;93.70;;;;;;4950307;29;20434;-76
2022/08/04 04:16:00;;;;;;;6.63;2.70;;;22.50;92.50;;;;;;4938754;29;20406;-75
2022/08/04 04:18:26;;;;;;;3.33;2.70;;;;;;;;;;4950876;29;20497;-75
2022/08/04 04:28:55;;;;;;;3.10;2.13;;;24.20;87.80;;;;;;5842941;23;20474;-77
2022/08/04 04:31:41;;;;;;;4.00;2.30;;;24.30;87.40;;;;;;4964108;28;20437;-77
2022/08/04 04:34:18;;;;;;;4.17;2.30;;;24.70;86.20;;;;;;4957461;28;20429;-77
2022/08/04 04:36:55;;;;;;;6.50;2.30;;;25.10;85.20;;;;;;4967909;28;20410;-77
2022/08/04 04:39:50;;;;;;;5.47;2.87;;;25.60;84.20;;;;;;4953649;29;20457;-78
2022/08/04 04:42:36;;;;;;;3.77;2.43;;;25.90;83.30;;;;;;4967165;28;20436;-78
2022/08/04 04:45:25;;;;;;;3.90;2.10;;;26.10;83.10;;;;;;4941322;28;20549;-78
2022/08/04 04:48:05;;;;;;;4.47;2.20;;;26.30;83.10;;;;;;4949303;28;20918;-78
2022/08/04 04:51:09;;;;;;;6.80;2.80;;;26.60;81.80;;;;;;4954191;29;20488;-78
2022/08/04 04:53:58;;;;;;;3.70;2.10;;;26.80;81.10;;;;;;4958708;28;20916;-78
2022/08/04 04:56:34;;;;;;;4.30;2.30;;;27.30;79.60;;;;;;4938916;28;20417;-78
2022/08/04 04:59:02;;;;;;;3.50;2.20;;;27.30;79.40;;;;;;4948244;28;20457;-76
2022/08/04 05:01:44;;;;;;;11.53;2.50;;;27.70;78.80;;;;;;4954176;29;20459;-76
2022/08/04 05:04:38;;;;;;;4.83;2.67;;;28.20;77.70;;;;;;4954090;29;20904;-76
2022/08/04 05:07:42;;;;;;;2.47;2.07;;;28.90;75.60;;;;;;4954111;29;20457;-75
2022/08/04 05:10:28;;;;;;;7.73;2.63;;;29.30;75.70;;;;;;4947650;28;20834;-76
2022/08/04 05:13:08;;;;;;;2.97;2.20;;;30.00;74.10;;;;;;4954129;28;20867;-76
2022/08/04 05:15:36;;;;;;;9.50;2.17;;;30.00;74.00;;;;;;4943719;29;20519;-76
2022/08/04 05:18:05;;;;;;;3.33;2.17;;;29.80;75.30;;;;;;4934366;29;20461;-76
2022/08/04 05:21:14;;;;;;;2.77;2.47;;;28.80;77.40;;;;;;4934754;29;20431;-76
2022/08/04 05:23:47;;;;;;;4.33;1.97;;;28.30;78.40;;;;;;4924411;29;20418;-76
2022/08/04 05:26:17;;;;;;;7.93;2.30;;;27.90;78.60;;;;;;4934777;29;20407;-76
2022/08/04 05:28:50;;;;;;;4.07;2.30;;;26.90;80.20;;;;;;4939482;28;20434;-76
2022/08/04 05:31:24;;;;;;;2.73;2.30;;;26.60;81.60;;;;;;4936947;29;20454;-76
2022/08/04 05:34:12;;;;;;;5.10;2.27;;;26.40;81.90;;;;;;4943864;29;20764;-75
2022/08/04 05:36:47;;;;;;;4.00;1.83;;;26.30;84.50;;;;;;4944962;29;20904;-75
2022/08/04 05:39:24;;;;;;;6.50;2.10;;;26.00;86.00;;;;;;4953190;29;20548;-74
2022/08/04 05:41:51;;;;;;;2.30;2.10;;;26.10;85.60;;;;;;4956041;28;20438;-75
2022/08/04 05:44:20;;;;;;;12.50;2.57;;;27.10;84.00;;;;;;4953711;29;20420;-75
2022/08/04 05:46:49;;;;;;;11.33;3.23;;;28.40;79.70;;;;;;4942836;29;20417;-75
2022/08/04 05:49:16;;;;;;;12.50;2.40;;;29.00;77.90;;;;;;4934255;29;20490;-76
2022/08/04 05:51:43;;;;;;;3.30;2.37;;;29.80;76.30;;;;;;4941034;29;20536;-75
2022/08/04 05:54:10;;;;;;;2.73;2.20;;;30.60;74.70;;;;;;4954227;28;20441;-76
2022/08/04 05:56:37;;;;;;;4.83;2.60;;;31.30;73.00;;;;;;4953447;29;20410;-76
2022/08/04 05:59:05;;;;;;;6.00;2.17;;;32.00;71.30;;;;;;4953365;29;20953;-77
2022/08/04 06:01:31;;;;;;;6.40;2.43;;;32.30;70.70;;;;;;4953532;28;20516;-76
2022/08/04 06:03:58;;;;;;;3.23;2.00;;;32.40;70.20;;;;;;4953443;28;20418;-76
2022/08/04 06:06:25;;;;;;;2.63;1.97;;;33.30;69.70;;;;;;4956051;29;20265;-75
2022/08/04 06:08:53;;;;;;;2.40;2.20;;;33.80;68.10;;;;;;4957151;29;20538;-76
2022/08/04 06:11:21;;;;;;;4.60;1.77;;;32.80;69.40;;;;;;4957008;29;20220;-76
2022/08/04 06:13:52;;;;;;;4.95;1.85;;;33.20;69.90;;;;;;4957163;29;20217;-77
2022/08/04 06:16:22;;;;;;;4.07;2.10;;;32.80;70.40;;;;;;4957104;29;20286;-77
2022/08/04 06:18:49;;;;;;;5.60;2.10;;;33.40;68.30;;;;;;4956484;29;20206;-76
2022/08/04 06:21:20;;;;;;;8.13;2.30;;;32.70;69.90;;;;;;4953155;29;20254;-76
2022/08/04 06:23:48;;;;;;;4.60;2.43;;;33.10;69.80;;;;;;4939100;29;20195;-77
2022/08/04 06:26:18;;;;;;;5.88;2.75;;;33.90;68.20;;;;;;4944497;29;20190;-76
2022/08/04 06:28:47;;;;;;;2.33;1.90;;;34.20;67.80;;;;;;4940311;28;20206;-76
2022/08/04 06:31:20;;;;;;;5.82;1.90;;;33.80;68.00;;;;;;4939062;28;20217;-77
2022/08/04 06:33:48;;;;;;;3.28;2.03;;;34.50;67.30;;;;;;4951779;28;20721;-76
2022/08/04 06:36:14;;;;;;;4.40;2.40;;;35.50;66.30;;;;;;4950383;29;20689;-77
2022/08/04 06:38:40;;;;;;;6.88;2.10;;;35.90;64.60;;;;;;4949952;29;20757;-76
2022/08/04 06:41:08;;;;;;;4.22;2.28;;;35.80;65.40;;;;;;4950894;28;20285;-78
2022/08/04 06:43:36;;;;;;;2.83;2.10;;;36.10;64.10;;;;;;4951508;29;20186;-77
2022/08/04 06:46:04;;;;;;;6.35;2.03;;;36.50;63.80;;;;;;4946905;28;20233;-77
2022/08/04 06:48:30;;;;;;;3.88;2.03;;;36.70;63.30;;;;;;4951080;29;20601;-77
2022/08/04 06:50:57;;;;;;;3.45;2.20;;;37.00;62.40;;;;;;4950706;29;20202;-77
2022/08/04 06:53:23;;;;;;;3.05;1.50;;;36.60;65.60;;;;;;4952238;29;20186;-77
2022/08/04 06:55:50;;;;;;;8.95;2.20;;;36.80;62.10;;;;;;4950764;29;20191;-77
2022/08/04 06:58:18;;;;;;;3.97;2.20;;;36.10;64.10;;;;;;4951137;29;20196;-77
2022/08/04 07:00:46;;;;;;;4.93;1.85;;;37.10;61.90;;;;;;4949983;28;20277;-77
2022/08/04 07:03:12;;;;;;;3.97;2.28;;;38.10;59.80;;;;;;4948325;28;20265;-77
2022/08/04 07:05:39;;;;;;;11.73;2.30;;;38.30;62.70;;;;;;4947424;29;20186;-77
2022/08/04 07:08:05;;;;;;;7.65;1.98;;;38.40;61.70;;;;;;4948825;29;20175;-76
2022/08/04 07:10:31;;;;;;;2.72;1.85;;;38.90;61.90;;;;;;4948974;29;20237;-76
2022/08/04 07:12:58;;;;;;;4.28;1.80;;;39.60;59.70;;;;;;4950258;29;20178;-73
2022/08/04 07:15:25;;;;;;;5.65;2.00;;;39.70;59.00;;;;;;4949155;29;21470;-73
2022/08/04 07:17:52;;;;;;;2.83;2.20;;;39.60;60.40;;;;;;4948552;28;20234;-73
2022/08/04 07:20:18;;;;;;;3.13;2.28;;;39.80;60.10;;;;;;4950510;28;20218;-73
2022/08/04 07:22:46;;;;;;;2.15;1.90;;;39.60;60.00;;;;;;4950288;29;20175;-73
2022/08/04 07:25:14;;;;;;;4.32;2.53;;;39.90;57.70;;;;;;4945198;29;20593;-73
2022/08/04 07:27:41;;;;;;;5.10;2.10;;;40.40;57.00;;;;;;4943646;29;20249;-73
2022/08/04 07:30:08;;;;;;;4.32;2.15;;;40.60;58.20;;;;;;4951080;29;20629;-74
2022/08/04 07:32:33;;;;;;;4.65;2.33;;;39.70;58.40;;;;;;4949966;29;20681;-75
2022/08/04 07:35:00;;;;;;;9.77;1.90;;;37.80;60.90;;;;;;4951353;29;20237;-74
2022/08/04 07:37:26;;;;;;;4.90;2.13;;;38.30;60.70;;;;;;4948773;29;20187;-73
2022/08/04 07:39:51;;;;;;;3.40;1.90;;;38.70;62.00;;;;;;4947897;29;20269;-73
2022/08/04 07:42:18;;;;;;;3.78;2.00;;;38.60;59.30;;;;;;4940575;28;20215;-76
2022/08/04 07:44:45;;;;;;;4.30;1.83;;;38.50;60.60;;;;;;4949365;29;20185;-76
2022/08/04 07:47:11;;;;;;;2.00;1.80;;;39.30;57.60;;;;;;4950801;29;20193;-77
2022/08/04 07:49:37;;;;;;;2.92;1.98;;;39.80;57.50;;;;;;4949542;29;20249;-76
2022/08/04 07:52:05;;;;;;;5.30;1.50;;;39.60;55.80;;;;;;4950953;29;20206;-77
2022/08/04 07:54:32;;;;;;;3.58;1.30;;;39.10;55.00;;;;;;4948944;28;20190;-76
2022/08/04 07:56:58;;;;;;;2.35;1.27;;;39.70;54.30;;;;;;4949021;29;20846;-76
2022/08/04 07:59:24;;;;;;;3.45;1.35;;;40.00;52.60;;;;;;4948664;29;20225;-76
2022/08/04 08:01:50;;;;;;;4.78;1.40;;;40.10;54.80;;;;;;4948474;28;20205;-76
2022/08/04 08:04:16;;;;;;;1.60;1.50;;;40.80;54.70;;;;;;4946733;29;20660;-77
2022/08/04 08:06:42;;;;;;;1.95;1.40;;;41.50;52.50;;;;;;4951330;29;20189;-77
2022/08/04 08:09:20;;;;;;;1.63;1.15;;;41.30;53.10;;;;;;4949437;29;20182;-77
2022/08/04 08:11:48;;;;;;;4.70;1.50;;;40.30;51.20;;;;;;4950246;28;20213;-76
2022/08/04 08:14:15;;;;;;;4.63;1.70;;;40.00;54.70;;;;;;4946902;29;20186;-77
2022/08/04 08:16:41;;;;;;;3.85;1.60;;;40.10;55.10;;;;;;4948573;29;20245;-78
2022/08/04 08:19:06;;;;;;;3.28;1.52;;;40.90;53.00;;;;;;4944559;29;20214;-77
2022/08/04 08:21:34;;;;;;;4.82;1.20;;;41.60;51.30;;;;;;4950061;28;20225;-78
2022/08/04 08:23:59;;;;;;;3.53;1.33;;;40.30;50.10;;;;;;4947786;29;20202;-77
2022/08/04 08:26:25;;;;;;;4.13;1.45;;;40.20;50.00;;;;;;4948484;29;20210;-77
2022/08/04 08:28:51;;;;;;;5.22;1.52;;;39.50;52.70;;;;;;4943363;28;20198;-76
2022/08/04 08:31:17;;;;;;;2.50;1.55;;;39.70;49.70;;;;;;4946316;29;20577;-77
2022/08/04 08:33:43;;;;;;;7.30;1.23;;;40.10;50.20;;;;;;4948085;28;20671;-77
2022/08/04 08:36:25;;;;;;;2.47;1.50;;;40.80;49.60;;;;;;4948864;29;20242;-77
2022/08/04 08:39:12;;;;;;;3.00;1.20;;;41.10;47.30;;;;;;4945242;29;20206;-78
2022/08/04 08:41:59;;;;;;;1.88;1.50;;;40.80;47.90;;;;;;4941189;28;20210;-78
2022/08/04 08:44:33;;;;;;;5.85;1.17;;;40.40;48.50;;;;;;4938210;28;20896;-77
2022/08/04 08:47:28;;;;;;;1.52;1.42;;;39.90;50.60;;;;;;4943357;29;20221;-77
2022/08/04 08:50:15;;;;;;;1.88;1.48;;;40.40;51.70;;;;;;4948715;29;20272;-77
2022/08/04 08:52:51;;;;;;;1.30;1.20;;;40.80;47.40;;;;;;4943492;29;20166;-78
2022/08/04 08:55:51;;;;;;;4.68;1.42;;;40.70;48.10;;;;;;4944094;29;20669;-78
2022/08/04 08:58:40;;;;;;;3.15;1.40;;;39.70;49.20;;;;;;4948706;28;20194;-77
2022/08/04 09:01:25;;;;;;;1.90;1.35;;;38.90;51.20;;;;;;4946484;28;20726;-77
2022/08/04 09:04:09;;;;;;;6.75;1.77;;;39.50;50.20;;;;;;4944580;29;20692;-69
2022/08/04 09:06:45;;;;;;;5.78;1.50;;;39.80;51.40;;;;;;4945889;29;20175;-69
2022/08/04 09:09:29;;;;;;;5.32;1.52;;;;;;;;;;4948593;29;20182;-69
2022/08/04 09:12:03;;;;;;;5.10;1.83;;;40.20;55.30;;;;;;4947095;28;20210;-69
2022/08/04 09:14:34;;;;;;;3.65;1.58;;;;;;;;;;4948641;29;20243;-68
2022/08/04 09:17:02;;;;;;;5.22;1.60;;;;;;;;;;4947500;28;20205;-68
2022/08/04 09:19:31;;;;;;;2.05;1.60;;;;;;;;;;4948571;28;20244;-69
2022/08/04 09:22:03;;;;;;;1.70;1.42;;;;;;;;;;4942336;29;20328;-69
2022/08/04 09:24:36;;;;;;;2.00;1.40;;;;;;;;;;4939493;29;20229;-69
2022/08/04 09:27:23;;;;;;;3.05;1.70;;;40.30;52.90;;;;;;4941348;28;20174;-68
2022/08/04 09:30:01;;;;;;;3.60;1.50;;;;;;;;;;4944325;29;20809;-69
2022/08/04 09:32:28;;;;;;;7.07;2.00;;;;;;;;;;4941937;28;20254;-69
2022/08/04 09:35:10;;;;;;;3.83;1.52;;;;;;;;;;4943917;29;20175;-69
2022/08/04 09:37:57;;;;;;;1.40;1.30;;;;;;;;;;4947794;29;20262;-79
2022/08/04 09:40:34;;;;;;;4.10;2.00;;;39.30;54.40;;;;;;4942222;28;20221;-79
2022/08/04 09:43:18;;;;;;;2.30;1.80;;;39.10;53.30;;;;;;4949053;29;20236;-78
2022/08/04 09:45:51;;;;;;;2.00;1.65;;;38.50;55.20;;;;;;4952267;29;20170;-79
2022/08/04 09:48:51;;;;;;;3.80;1.83;;;38.00;54.00;;;;;;4949800;29;20244;-79
2022/08/04 09:51:39;;;;;;;9.70;1.65;;;37.00;55.80;;;;;;4937231;28;20689;-79
2022/08/04 09:54:30;;;;;;;3.13;2.00;;;36.40;57.20;;;;;;4953145;29;20261;-79
2022/08/04 09:57:33;;;;;;;6.82;2.05;;;35.20;57.90;;;;;;4954607;29;20174;-80
2022/08/04 10:00:07;;;;;;;10.48;2.05;;;34.90;58.70;;;;;;4952768;29;20549;-79
2022/08/04 10:02:42;;;;;;;2.75;2.00;;;34.90;60.40;;;;;;4952117;28;20225;-79
2022/08/04 10:05:13;;;;;;;2.20;1.63;;;34.90;58.00;;;;;;4950728;29;20691;-79
2022/08/04 10:07:50;;;;;;;2.42;1.58;;;34.70;59.50;;;;;;4950591;29;20185;-79
2022/08/04 10:10:31;;;;;;;1.63;1.52;;;34.20;60.20;;;;;;4953266;28;20616;-80
2022/08/04 10:13:16;;;;;;;3.08;1.67;;;34.40;59.10;;;;;;4953490;29;20175;-80
2022/08/04 10:16:20;;;;;;;1.73;1.63;;;34.40;64.60;;;;;;4956605;29;20186;-78
2022/08/04 10:19:06;;;;;;;1.75;1.65;;;34.00;62.90;;;;;;4961538;29;20674;-80
2022/08/04 10:32:26;;;;;;;2.50;1.67;;;35.50;59.40;;;;;;5417766;23;21067;-79
2022/08/04 10:34:55;;;;;;;1.52;1.42;;;35.60;61.80;;;;;;4930155;29;20182;-79
2022/08/04 10:37:34;;;;;;;3.83;1.90;;;34.60;59.40;;;;;;4924240;29;20176;-79
2022/08/04 10:43:04;;;;;;;4.78;1.98;;;33.70;60.10;;;;;;4904700;29;20699;-81
2022/08/04 10:45:44;;;;;;;4.25;2.03;;;33.80;62.50;;;;;;4905090;29;20262;-80
2022/08/04 10:48:18;;;;;;;3.13;1.67;;;33.50;60.90;;;;;;4906108;29;20559;-79
2022/08/04 10:51:04;;;;;;;2.20;2.00;;;33.30;61.00;;;;;;4918567;29;20199;-79
2022/08/04 10:53:30;;;;;;;1.53;1.40;;;33.10;60.20;;;;;;4921504;29;20446;-79
2022/08/04 10:56:09;;;;;;;2.43;2.07;;;32.70;61.80;;;;;;4920550;29;20196;-78
2022/08/04 10:58:41;;;;;;;2.07;1.90;;;32.60;62.40;;;;;;4917366;29;20506;-78
2022/08/04 11:01:16;;;;;;;2.47;1.73;;;32.60;61.30;;;;;;4919290;29;20444;-78
2022/08/04 11:03:50;;;;;;;2.50;2.10;;;33.20;59.80;;;;;;4919747;29;20426;-79
2022/08/04 11:06:17;;;;;;;7.87;1.90;;;33.50;59.50;;;;;;4935388;29;20434;-79
2022/08/04 11:08:57;;;;;;;5.93;2.00;;;33.50;59.10;;;;;;4922290;29;20454;-80
2022/08/04 11:11:43;;;;;;;2.00;1.80;;;33.50;61.40;;;;;;4907497;29;20443;-78
2022/08/04 11:14:12;;;;;;;3.87;1.90;;;34.00;59.60;;;;;;4902805;29;20432;-80
2022/08/04 11:16:45;;;;;;;2.60;2.00;;;33.80;60.00;;;;;;4901355;29;20435;-80
2022/08/04 11:19:24;;;;;;;7.57;1.83;;;33.50;61.30;;;;;;4901894;29;20468;-80
2022/08/04 11:22:02;;;;;;;2.10;1.90;;;33.60;59.80;;;;;;4915185;29;20518;-80
2022/08/04 11:24:44;;;;;;;4.97;2.40;;;33.30;60.50;;;;;;4904666;29;20428;-80
2022/08/04 11:27:39;;;;;;;2.20;2.00;;;33.00;62.00;;;;;;4915583;29;20428;-80
2022/08/04 11:30:07;;;;;;;8.17;1.70;;;33.20;60.80;;;;;;4916981;29;20428;-80
2022/08/04 11:32:51;;;;;;;2.10;1.90;;;33.30;60.70;;;;;;4919251;29;20515;-80
2022/08/04 11:35:31;;;;;;;1.97;1.73;;;33.60;60.50;;;;;;4900998;29;20421;-80
2022/08/04 11:38:21;;;;;;;1.63;1.53;;;33.60;60.10;;;;;;4908194;29;20462;-80
2022/08/04 11:40:50;;;;;;;4.87;2.03;;;33.30;60.30;;;;;;4923468;29;20439;-80
2022/08/04 11:43:35;;;;;;;6.30;1.90;;;33.00;61.20;;;;;;4940970;29;20787;-80
2022/08/04 11:46:12;;;;;;;3.10;2.10;;;33.00;61.10;;;;;;4922147;29;21220;-80
2022/08/04 11:49:06;;;;;;;6.50;2.00;;;33.30;60.90;;;;;;4921314;29;20471;-80
2022/08/04 11:51:33;;;;;;;3.10;1.90;;;33.50;61.20;;;;;;4920394;29;20459;-80
2022/08/04 11:54:00;;;;;;;6.17;2.13;;;34.10;59.90;;;;;;4922045;29;20426;-80
2022/08/04 11:56:26;;;;;;;2.30;2.10;;;34.00;61.00;;;;;;4921183;29;20490;-80
2022/08/04 11:58:52;;;;;;;4.13;2.03;;;34.00;60.70;;;;;;4920751;29;20471;-80
2022/08/04 12:01:33;;;;;;;2.20;2.00;;;34.00;60.20;;;;;;4921463;29;20436;-80
2022/08/04 12:04:02;;;;;;;6.73;2.23;;;32.90;61.50;;;;;;4903085;29;22335;-80
2022/08/04 12:06:51;;;;;;;10.13;1.80;;;32.90;61.50;;;;;;4904483;29;20452;-80
2022/08/04 12:09:40;;;;;;;3.20;1.97;;;32.90;61.10;;;;;;4925437;29;20469;-80
2022/08/04 12:12:26;;;;;;;2.30;2.10;;;32.50;62.10;;;;;;4920229;29;20487;-80
2022/08/04 12:15:16;;;;;;;4.13;2.03;;;32.20;63.10;;;;;;4918128;29;20807;-80
2022/08/04 12:17:58;;;;;;;9.17;2.00;;;32.60;62.60;;;;;;4920257;29;20415;-80
2022/08/04 12:20:27;;;;;;;4.57;2.00;;;32.80;61.20;;;;;;4919221;29;20833;-80
2022/08/04 12:22:56;;;;;;;2.83;1.87;;;32.70;61.30;;;;;;4910732;29;20503;-80
2022/08/04 12:25:29;;;;;;;1.80;1.70;;;32.60;64.00;;;;;;4919255;29;20455;-80
2022/08/04 12:28:20;;;;;;;1.83;1.70;;;33.30;62.00;;;;;;4920092;29;20462;-80
2022/08/04 12:30:51;;;;;;;8.07;2.27;;;33.40;60.40;;;;;;4918268;29;20522;-79
2022/08/04 12:33:23;;;;;;;3.70;1.90;;;33.40;62.50;;;;;;4917638;29;20889;-79
2022/08/04 12:35:58;;;;;;;2.20;2.00;;;33.70;61.80;;;;;;4918075;29;20431;-79
2022/08/04 12:38:26;;;;;;;2.60;1.87;;;33.30;61.20;;;;;;4931439;29;20466;-79
2022/08/04 12:40:58;;;;;;;5.20;2.07;;;32.90;61.50;;;;;;4929677;29;20460;-79
2022/08/04 12:43:43;;;;;;;2.90;1.70;;;33.10;61.60;;;;;;4907923;29;20421;-79
2022/08/04 12:46:10;;;;;;;1.87;1.73;;;33.50;60.20;;;;;;4911173;29;20462;-80
2022/08/04 12:48:38;;;;;;;3.30;1.80;;;33.70;59.10;;;;;;4916417;29;20462;-79
2022/08/04 12:51:07;;;;;;;2.17;1.80;;;34.30;59.10;;;;;;4916399;29;20444;-79
2022/08/04 12:53:36;;;;;;;2.20;1.70;;;34.30;58.80;;;;;;4915472;29;20483;-79
2022/08/04 12:56:03;;;;;;;2.73;2.00;;;34.50;58.70;;;;;;4918056;29;20423;-80
2022/08/04 12:58:35;;;;;;;3.30;1.80;;;35.10;58.80;;;;;;4917944;29;20557;-79
2022/08/04 13:01:22;;;;;;;3.17;1.93;;;35.00;58.90;;;;;;4918785;29;20206;-80
2022/08/04 13:04:11;;;;;;;2.40;2.20;;;35.00;57.90;;;;;;4918385;29;20180;-79
2022/08/04 13:06:39;;;;;;;2.30;1.70;;;34.30;58.70;;;;;;4917155;29;20553;-80
2022/08/04 13:09:14;;;;;;;2.63;2.10;;;33.70;59.80;;;;;;4923208;29;20175;-80
2022/08/04 13:11:42;;;;;;;7.03;2.10;;;33.10;60.10;;;;;;4938476;29;20206;-81
2022/08/04 13:14:12;;;;;;;2.40;1.90;;;33.20;59.50;;;;;;4939738;29;20179;-81
2022/08/04 13:16:37;;;;;;;3.95;1.80;;;33.60;60.00;;;;;;4940686;29;20179;-81
2022/08/04 13:19:07;;;;;;;6.70;1.70;;;34.10;58.70;;;;;;4927620;29;20203;-80
2022/08/04 13:21:33;;;;;;;10.80;1.90;;;34.40;59.00;;;;;;4918223;29;20726;-80
2022/08/04 13:24:05;;;;;;;2.07;1.87;;;34.30;58.10;;;;;;4918716;29;20172;-81
2022/08/04 13:26:33;;;;;;;4.60;1.63;;;33.90;58.70;;;;;;4918170;29;20422;-80
2022/08/04 13:29:02;;;;;;;8.30;1.90;;;33.30;59.90;;;;;;4918523;29;20916;-80
2022/08/04 13:31:28;;;;;;;1.97;1.77;;;33.00;61.90;;;;;;4916140;29;20456;-80
2022/08/04 13:34:04;;;;;;;1.93;1.83;;;33.00;61.20;;;;;;4919177;29;20474;-81
2022/08/04 13:36:30;;;;;;;3.87;2.10;;;33.40;60.20;;;;;;4918192;29;20186;-82
2022/08/04 13:39:07;;;;;;;2.03;1.90;;;33.30;59.10;;;;;;4918121;29;20466;-83
2022/08/04 13:41:38;;;;;;;2.80;2.13;;;33.60;59.70;;;;;;4933166;29;20434;-81
2022/08/04 13:44:08;;;;;;;5.90;2.03;;;34.10;60.20;;;;;;4939400;29;20412;-80
2022/08/04 13:46:43;;;;;;;3.00;2.10;;;34.20;59.10;;;;;;4937162;29;20437;-82
2022/08/04 13:49:13;;;;;;;1.93;1.73;;;34.60;58.50;;;;;;4938833;29;20175;-82
2022/08/04 13:51:40;;;;;;;5.17;2.07;;;34.80;58.60;;;;;;4943173;29;20201;-82
2022/08/04 13:54:05;;;;;;;3.03;1.70;;;34.90;57.20;;;;;;4941811;29;20186;-83
2022/08/04 13:56:37;;;;;;;6.97;2.13;;;35.00;59.20;;;;;;4942512;29;20191;-83
2022/08/04 13:59:08;;;;;;;2.45;2.20;;;35.30;58.00;;;;;;4946112;29;20206;-81
2022/08/04 14:01:37;;;;;;;3.85;1.70;;;35.20;57.40;;;;;;4943115;29;20266;-81
2022/08/04 14:04:17;;;;;;;3.75;2.40;;;34.70;58.20;;;;;;4945359;29;20179;-82
2022/08/04 14:06:49;;;;;;;1.70;1.60;;;35.10;57.90;;;;;;4943127;29;20159;-84
2022/08/04 14:09:18;;;;;;;6.28;1.98;;;35.00;57.00;;;;;;4937924;29;20196;-83
2022/08/04 14:11:46;;;;;;;2.40;1.70;;;35.10;57.30;;;;;;4922876;29;20207;-84
2022/08/04 14:14:27;;;;;;;4.63;2.22;;;35.20;57.50;;;;;;4922676;29;20227;-82
2022/08/04 14:17:07;;;;;;;2.60;1.80;;;35.00;58.20;;;;;;4922622;29;20187;-83
2022/08/04 14:19:57;;;;;;;2.28;1.92;;;35.10;57.60;;;;;;4918131;29;20187;-83
2022/08/04 14:22:26;;;;;;;2.22;1.85;;;35.10;56.10;;;;;;4916711;29;20200;-84
2022/08/04 14:24:58;;;;;;;2.00;1.80;;;35.20;56.80;;;;;;4913909;29;20179;-84
2022/08/04 14:27:27;;;;;;;7.32;2.05;;;35.60;56.00;;;;;;4918315;29;20219;-84
2022/08/04 14:29:52;;;;;;;1.80;1.70;;;35.80;56.50;;;;;;4918941;29;20180;-83
2022/08/04 14:32:18;;;;;;;4.40;1.60;;;36.10;55.00;;;;;;4919283;29;20218;-83
2022/08/04 14:34:45;;;;;;;2.90;1.67;;;35.90;55.70;;;;;;4919295;29;20187;-84
2022/08/04 14:37:14;;;;;;;4.13;2.00;;;35.20;57.10;;;;;;4921250;29;20192;-83
2022/08/04 14:39:41;;;;;;;3.90;1.77;;;35.10;55.80;;;;;;4919825;29;20237;-83
2022/08/04 14:42:08;;;;;;;2.33;1.90;;;35.00;56.50;;;;;;4918840;29;20244;-83
2022/08/04 14:44:52;;;;;;;6.00;1.90;;;34.90;55.70;;;;;;4919632;29;20180;-82
2022/08/04 14:47:18;;;;;;;5.97;2.05;;;35.20;56.10;;;;;;4919153;29;20180;-82
2022/08/04 14:49:54;;;;;;;3.67;1.90;;;35.20;56.20;;;;;;4922269;29;20178;-82
2022/08/04 14:52:24;;;;;;;5.30;1.80;;;34.90;55.70;;;;;;4920918;29;20207;-81
2022/08/04 14:54:49;;;;;;;4.60;1.80;;;35.00;56.70;;;;;;4923212;29;20175;-83
2022/08/04 14:57:15;;;;;;;2.10;1.98;;;35.00;56.40;;;;;;4920812;29;20279;-82
2022/08/04 14:59:47;;;;;;;2.28;1.77;;;35.60;56.80;;;;;;4921275;29;20233;-81
2022/08/04 15:02:13;;;;;;;2.20;2.00;;;35.80;55.90;;;;;;4921527;29;20684;-80
2022/08/04 15:04:41;;;;;;;2.08;1.67;;;35.90;55.10;;;;;;4922807;29;20182;-80
2022/08/04 15:07:07;;;;;;;1.98;1.80;;;35.30;56.30;;;;;;4920044;29;20266;-80
2022/08/04 15:09:34;;;;;;;9.38;2.15;;;34.90;57.20;;;;;;4929781;29;20266;-81
2022/08/04 15:12:00;;;;;;;2.42;1.90;;;35.30;56.50;;;;;;4923352;29;20211;-80
2022/08/04 15:14:26;;;;;;;2.22;2.03;;;35.40;56.40;;;;;;4920553;29;20211;-81
2022/08/04 15:16:51;;;;;;;6.50;1.88;;;35.50;55.50;;;;;;4919337;29;20191;-82
2022/08/04 15:19:18;;;;;;;5.22;2.00;;;35.10;56.40;;;;;;4920219;29;20210;-81
2022/08/04 15:21:44;;;;;;;8.45;2.00;;;35.10;57.10;;;;;;4919613;29;20295;-82
2022/08/04 15:24:11;;;;;;;5.53;2.17;;;34.90;55.50;;;;;;4922240;29;20199;-81
2022/08/04 15:26:43;;;;;;;4.95;1.83;;;35.00;55.50;;;;;;4922574;29;20168;-84
2022/08/04 15:29:15;;;;;;;2.83;1.90;;;35.20;55.00;;;;;;4919850;29;20547;-81
2022/08/04 15:31:42;;;;;;;5.28;2.00;;;35.90;55.40;;;;;;4921747;29;20215;-81
2022/08/04 15:34:09;;;;;;;3.78;1.80;;;35.00;56.10;;;;;;4921349;29;20192;-83
2022/08/04 15:36:37;;;;;;;2.03;1.83;;;35.20;55.20;;;;;;4921329;29;20185;-82
2022/08/04 15:39:22;;;;;;;2.38;1.80;;;34.50;56.40;;;;;;4920418;29;20556;-80
2022/08/04 15:42:00;;;;;;;1.95;1.85;;;34.20;58.50;;;;;;4935266;29;20214;-80
2022/08/04 15:44:52;;;;;;;3.55;1.90;;;34.30;57.30;;;;;;4940703;29;20147;-80
2022/08/04 15:47:18;;;;;;;11.40;2.20;;;34.70;57.00;;;;;;4910721;29;20670;-80
2022/08/04 15:49:44;;;;;;;2.20;1.70;;;34.70;56.70;;;;;;4938996;29;20179;-80
2022/08/04 15:52:12;;;;;;;4.57;1.80;;;34.90;55.30;;;;;;4929087;29;20204;-80
2022/08/04 15:54:38;;;;;;;2.00;1.80;;;35.00;55.70;;;;;;4917989;29;20179;-80
2022/08/04 15:57:05;;;;;;;2.15;1.88;;;35.00;56.70;;;;;;4920051;29;20172;-80
2022/08/04 15:59:57;;;;;;;6.00;2.15;;;34.80;56.50;;;;;;4920122;29;20218;-80
2022/08/04 16:02:31;;;;;;;4.00;2.28;;;34.30;57.10;;;;;;4919766;29;20233;-80
2022/08/04 16:05:15;;;;;;;2.22;2.00;;;33.90;57.70;;;;;;4917749;29;20253;-79
2022/08/04 16:07:57;;;;;;;6.00;1.92;;;33.60;58.90;;;;;;4926826;29;20652;-80
2022/08/04 16:10:31;;;;;;;9.35;2.47;;;33.30;59.20;;;;;;4924988;29;20179;-81
2022/08/04 16:13:02;;;;;;;2.13;1.83;;;33.30;59.20;;;;;;4920493;29;20183;-80
2022/08/04 16:16:08;;;;;;;2.13;1.80;;;33.30;59.70;;;;;;4941826;29;20219;-80
2022/08/04 16:18:38;;;;;;;3.10;2.07;;;33.20;58.20;;;;;;4952198;29;20183;-80
2022/08/04 17:42:32;;;;;;;2.30;2.10;;;31.00;64.50;;;;;;5388643;23;20493;-80
2022/08/04 17:45:27;;;;;;;5.10;2.40;;;30.80;64.30;;;;;;4970190;28;20417;-82
2022/08/04 17:47:52;;;;;;;3.60;1.73;;;30.80;64.90;;;;;;4960415;28;20420;-84
2022/08/04 17:50:32;;;;;;;8.03;1.97;;;30.70;64.80;;;;;;4981320;28;20779;-83
2022/08/04 17:53:03;;;;;;;8.80;2.17;;;30.60;65.60;;;;;;4960754;29;20171;-82
2022/08/04 17:55:46;;;;;;;9.70;2.27;;;30.50;65.80;;;;;;4955070;28;20922;-83
2022/08/04 17:58:21;;;;;;;6.90;2.50;;;30.40;66.00;;;;;;4947240;29;20442;-80
2022/08/04 18:00:58;;;;;;;4.17;2.00;;;30.30;66.60;;;;;;4944268;29;20448;-80
2022/08/04 18:03:24;;;;;;;9.23;2.20;;;30.20;66.70;;;;;;4947141;29;20399;-80
2022/08/04 18:05:53;;;;;;;12.30;2.10;;;30.00;66.90;;;;;;4950242;29;20438;-80
2022/08/04 18:08:23;;;;;;;2.37;2.03;;;29.90;67.40;;;;;;4945793;29;20473;-80
2022/08/04 18:10:48;;;;;;;4.67;2.27;;;29.80;67.50;;;;;;4982865;28;20964;-80
2022/08/04 18:13:14;;;;;;;2.47;2.10;;;29.80;68.00;;;;;;4981103;28;20517;-82
2022/08/04 18:15:40;;;;;;;2.80;2.53;;;29.60;68.40;;;;;;4963925;29;20250;-81
2022/08/04 18:18:17;;;;;;;13.43;2.50;;;29.50;68.80;;;;;;4964082;29;20210;-83
2022/08/04 18:20:42;;;;;;;10.47;2.47;;;29.30;69.00;;;;;;4970028;28;20213;-82
2022/08/04 18:23:12;;;;;;;6.53;2.03;;;29.10;69.60;;;;;;4975420;28;20433;-81
2022/08/04 18:25:38;;;;;;;3.20;2.43;;;29.10;69.30;;;;;;4971921;28;20178;-81
2022/08/04 18:28:08;;;;;;;5.00;2.40;;;28.90;69.70;;;;;;4968854;28;20898;-80
2022/08/04 18:30:35;;;;;;;21.60;3.50;;;28.90;70.70;;;;;;4966990;28;20390;-80
2022/08/04 18:33:01;;;;;;;10.20;2.53;;;28.70;70.90;;;;;;4965120;29;20444;-80
2022/08/04 18:35:32;;;;;;;6.00;2.60;;;28.60;70.90;;;;;;4966865;28;20911;-80
2022/08/04 18:37:58;;;;;;;11.60;2.97;;;28.50;71.10;;;;;;4965547;28;20171;-80
2022/08/04 18:40:24;;;;;;;3.40;2.40;;;28.40;71.70;;;;;;4975504;28;20420;-80
2022/08/04 18:42:49;;;;;;;4.37;2.70;;;28.30;71.80;;;;;;4986795;28;20436;-81
2022/08/04 18:45:15;;;;;;;9.73;2.57;;;28.20;72.40;;;;;;4986566;28;20261;-80
2022/08/04 18:47:40;;;;;;;3.07;2.13;;;28.10;72.50;;;;;;4984668;28;20766;-76
2022/08/04 18:50:06;;;;;;;4.00;2.60;;;28.00;72.90;;;;;;4984536;28;20216;-80
2022/08/04 18:52:32;;;;;;;2.90;2.23;;;27.90;73.50;;;;;;4988349;28;20205;-81
2022/08/04 18:54:57;;;;;;;4.37;2.70;;;27.80;73.60;;;;;;4984129;28;20170;-80
2022/08/04 18:57:27;;;;;;;7.73;2.67;;;27.70;73.80;;;;;;4983749;28;20201;-80
2022/08/04 18:59:54;;;;;;;14.00;2.40;;;27.60;73.90;;;;;;4982307;28;20598;-80
2022/08/04 19:02:19;;;;;;;4.57;2.40;;;27.50;74.30;;;;;;4985571;28;20449;-80
2022/08/04 19:04:45;;;;;;;3.97;2.50;;;27.50;74.40;;;;;;4987336;28;20405;-80
2022/08/04 19:07:12;;;;;;;3.63;2.40;;;27.40;74.50;;;;;;4987498;28;20193;-81